sensor_id;sensor_type;location;lat;lon;timestamp;P1;durP1;ratioP1;P2;durP2;ratioP2
17925;SDS011;9088;55.674;13.354;2023-08-20T00:01:25;0.40;;;0.40;;
17925;SDS011;9088;55.674;13.354;2023-08-20T00:03:53;0.40;;;0.40;;
17925;SDS011;9088;55.674;13.354;2023-08-20T00:06:22;0.40;;;0.40;;
17925;SDS011;9088;55.674;13.354;2023-08-20T00:08:49;0.40;;;0.40;;
17925;SDS011;9088;55.674;13.354;2023-08-20T00:11:16;0.40;;;0.40;;
17925;SDS011;9088;55.674;13.354;2023-08-20T00:13:43;0.40;;;0.40;;
17925;SDS011;9088;55.674;13.354;2023-08-20T00:16:11;0.30;;;0.30;;
17925;SDS011;9088;55.674;13.354;2023-08-20T00:18:38;0.40;;;0.40;;
17925;SDS011;9088;55.674;13.354;2023-08-20T00:21:06;0.30;;;0.30;;
17925;SDS011;9088;55.674;13.354;2023-08-20T00:23:35;0.40;;;0.40;;
17925;SDS011;9088;55.674;13.354;2023-08-20T00:26:02;0.30;;;0.30;;
17925;SDS011;9088;55.674;13.354;2023-08-20T00:28:29;0.30;;;0.30;;
17925;SDS011;9088;55.674;13.354;2023-08-20T00:30:58;0.30;;;0.30;;
17925;SDS011;9088;55.674;13.354;2023-08-20T00:33:25;0.30;;;0.30;;
17925;SDS011;9088;55.674;13.354;2023-08-20T00:35:52;0.30;;;0.30;;
17925;SDS011;9088;55.674;13.354;2023-08-20T00:38:20;0.30;;;0.30;;
17925;SDS011;9088;55.674;13.354;2023-08-20T00:40:48;0.30;;;0.30;;
17925;SDS011;9088;55.674;13.354;2023-08-20T00:43:15;0.30;;;0.30;;
17925;SDS011;9088;55.674;13.354;2023-08-20T00:45:42;0.30;;;0.30;;
17925;SDS011;9088;55.674;13.354;2023-08-20T00:48:10;0.30;;;0.30;;
17925;SDS011;9088;55.674;13.354;2023-08-20T00:50:37;0.20;;;0.20;;
17925;SDS011;9088;55.674;13.354;2023-08-20T00:53:05;0.20;;;0.20;;
17925;SDS011;9088;55.674;13.354;2023-08-20T00:55:32;0.20;;;0.20;;
17925;SDS011;9088;55.674;13.354;2023-08-20T00:58:00;0.20;;;0.20;;
17925;SDS011;9088;55.674;13.354;2023-08-20T01:00:27;0.20;;;0.20;;
17925;SDS011;9088;55.674;13.354;2023-08-20T01:02:55;0.20;;;0.20;;
17925;SDS011;9088;55.674;13.354;2023-08-20T01:05:22;0.20;;;0.20;;
17925;SDS011;9088;55.674;13.354;2023-08-20T01:07:54;0.20;;;0.20;;
17925;SDS011;9088;55.674;13.354;2023-08-20T01:10:26;0.20;;;0.20;;
17925;SDS011;9088;55.674;13.354;2023-08-20T01:12:56;0.20;;;0.20;;
17925;SDS011;9088;55.674;13.354;2023-08-20T01:15:24;0.20;;;0.20;;
17925;SDS011;9088;55.674;13.354;2023-08-20T01:17:52;0.20;;;0.20;;
17925;SDS011;9088;55.674;13.354;2023-08-20T01:20:19;0.20;;;0.20;;
17925;SDS011;9088;55.674;13.354;2023-08-20T01:22:54;0.20;;;0.20;;
17925;SDS011;9088;55.674;13.354;2023-08-20T01:25:30;0.10;;;0.10;;
17925;SDS011;9088;55.674;13.354;2023-08-20T01:28:03;0.20;;;0.20;;
17925;SDS011;9088;55.674;13.354;2023-08-20T01:30:33;0.20;;;0.20;;
17925;SDS011;9088;55.674;13.354;2023-08-20T01:33:01;0.20;;;0.20;;
17925;SDS011;9088;55.674;13.354;2023-08-20T01:35:28;0.20;;;0.20;;
17925;SDS011;9088;55.674;13.354;2023-08-20T01:37:55;0.20;;;0.20;;
17925;SDS011;9088;55.674;13.354;2023-08-20T01:40:22;0.20;;;0.20;;
17925;SDS011;9088;55.674;13.354;2023-08-20T01:42:50;0.20;;;0.20;;
17925;SDS011;9088;55.674;13.354;2023-08-20T01:45:17;0.20;;;0.20;;
17925;SDS011;9088;55.674;13.354;2023-08-20T01:47:45;0.20;;;0.20;;
17925;SDS011;9088;55.674;13.354;2023-08-20T01:50:12;0.20;;;0.20;;
17925;SDS011;9088;55.674;13.354;2023-08-20T01:52:39;0.20;;;0.20;;
17925;SDS011;9088;55.674;13.354;2023-08-20T01:55:08;0.20;;;0.20;;
17925;SDS011;9088;55.674;13.354;2023-08-20T01:57:35;0.20;;;0.20;;
17925;SDS011;9088;55.674;13.354;2023-08-20T02:00:02;0.20;;;0.20;;
17925;SDS011;9088;55.674;13.354;2023-08-20T02:02:30;0.20;;;0.20;;
17925;SDS011;9088;55.674;13.354;2023-08-20T02:04:58;0.20;;;0.20;;
17925;SDS011;9088;55.674;13.354;2023-08-20T02:07:25;0.30;;;0.30;;
17925;SDS011;9088;55.674;13.354;2023-08-20T02:09:52;0.20;;;0.20;;
17925;SDS011;9088;55.674;13.354;2023-08-20T02:12:19;0.30;;;0.30;;
17925;SDS011;9088;55.674;13.354;2023-08-20T02:14:46;0.30;;;0.30;;
17925;SDS011;9088;55.674;13.354;2023-08-20T02:17:14;0.30;;;0.30;;
17925;SDS011;9088;55.674;13.354;2023-08-20T02:19:41;0.30;;;0.30;;
17925;SDS011;9088;55.674;13.354;2023-08-20T02:22:09;0.30;;;0.30;;
17925;SDS011;9088;55.674;13.354;2023-08-20T02:24:36;0.30;;;0.30;;
17925;SDS011;9088;55.674;13.354;2023-08-20T02:27:03;0.30;;;0.30;;
17925;SDS011;9088;55.674;13.354;2023-08-20T02:29:30;0.30;;;0.30;;
17925;SDS011;9088;55.674;13.354;2023-08-20T02:31:57;0.30;;;0.30;;
17925;SDS011;9088;55.674;13.354;2023-08-20T02:34:24;0.30;;;0.30;;
17925;SDS011;9088;55.674;13.354;2023-08-20T02:36:51;0.20;;;0.20;;
17925;SDS011;9088;55.674;13.354;2023-08-20T02:39:20;0.27;;;0.27;;
17925;SDS011;9088;55.674;13.354;2023-08-20T02:41:49;0.30;;;0.30;;
17925;SDS011;9088;55.674;13.354;2023-08-20T02:44:16;0.30;;;0.30;;
17925;SDS011;9088;55.674;13.354;2023-08-20T02:46:43;0.30;;;0.30;;
17925;SDS011;9088;55.674;13.354;2023-08-20T02:49:10;0.30;;;0.30;;
17925;SDS011;9088;55.674;13.354;2023-08-20T02:51:39;0.30;;;0.30;;
17925;SDS011;9088;55.674;13.354;2023-08-20T02:54:07;0.30;;;0.30;;
17925;SDS011;9088;55.674;13.354;2023-08-20T02:56:35;0.30;;;0.30;;
17925;SDS011;9088;55.674;13.354;2023-08-20T02:59:02;0.30;;;0.30;;
17925;SDS011;9088;55.674;13.354;2023-08-20T03:01:30;0.30;;;0.30;;
17925;SDS011;9088;55.674;13.354;2023-08-20T03:03:57;0.30;;;0.30;;
17925;SDS011;9088;55.674;13.354;2023-08-20T03:06:24;0.30;;;0.30;;
17925;SDS011;9088;55.674;13.354;2023-08-20T03:08:51;0.30;;;0.30;;
17925;SDS011;9088;55.674;13.354;2023-08-20T03:11:18;0.30;;;0.30;;
17925;SDS011;9088;55.674;13.354;2023-08-20T03:13:46;0.30;;;0.30;;
17925;SDS011;9088;55.674;13.354;2023-08-20T03:16:14;0.30;;;0.30;;
17925;SDS011;9088;55.674;13.354;2023-08-20T03:18:41;0.30;;;0.30;;
17925;SDS011;9088;55.674;13.354;2023-08-20T03:21:08;0.40;;;0.40;;
17925;SDS011;9088;55.674;13.354;2023-08-20T03:23:35;0.40;;;0.40;;
17925;SDS011;9088;55.674;13.354;2023-08-20T03:26:02;0.30;;;0.30;;
17925;SDS011;9088;55.674;13.354;2023-08-20T03:28:29;0.40;;;0.40;;
17925;SDS011;9088;55.674;13.354;2023-08-20T03:31:00;0.40;;;0.40;;
17925;SDS011;9088;55.674;13.354;2023-08-20T03:33:27;0.40;;;0.40;;
17925;SDS011;9088;55.674;13.354;2023-08-20T03:35:55;0.40;;;0.40;;
17925;SDS011;9088;55.674;13.354;2023-08-20T03:38:23;0.40;;;0.40;;
17925;SDS011;9088;55.674;13.354;2023-08-20T03:40:50;0.40;;;0.40;;
17925;SDS011;9088;55.674;13.354;2023-08-20T03:43:18;0.40;;;0.40;;
17925;SDS011;9088;55.674;13.354;2023-08-20T03:45:49;0.40;;;0.40;;
17925;SDS011;9088;55.674;13.354;2023-08-20T03:48:18;0.50;;;0.50;;
17925;SDS011;9088;55.674;13.354;2023-08-20T03:50:46;0.40;;;0.40;;
17925;SDS011;9088;55.674;13.354;2023-08-20T03:53:14;0.50;;;0.50;;
17925;SDS011;9088;55.674;13.354;2023-08-20T03:55:41;0.40;;;0.40;;
17925;SDS011;9088;55.674;13.354;2023-08-20T03:58:09;0.50;;;0.50;;
17925;SDS011;9088;55.674;13.354;2023-08-20T04:00:36;0.50;;;0.50;;
17925;SDS011;9088;55.674;13.354;2023-08-20T04:03:04;0.50;;;0.50;;
17925;SDS011;9088;55.674;13.354;2023-08-20T04:05:36;0.50;;;0.50;;
17925;SDS011;9088;55.674;13.354;2023-08-20T04:08:04;0.40;;;0.40;;
17925;SDS011;9088;55.674;13.354;2023-08-20T04:10:32;0.50;;;0.50;;
17925;SDS011;9088;55.674;13.354;2023-08-20T04:13:00;0.50;;;0.50;;
17925;SDS011;9088;55.674;13.354;2023-08-20T04:15:28;0.50;;;0.50;;
17925;SDS011;9088;55.674;13.354;2023-08-20T04:17:55;0.40;;;0.40;;
17925;SDS011;9088;55.674;13.354;2023-08-20T04:20:23;0.40;;;0.40;;
17925;SDS011;9088;55.674;13.354;2023-08-20T04:22:52;0.40;;;0.40;;
17925;SDS011;9088;55.674;13.354;2023-08-20T04:25:19;0.40;;;0.40;;
17925;SDS011;9088;55.674;13.354;2023-08-20T04:27:47;0.40;;;0.40;;
17925;SDS011;9088;55.674;13.354;2023-08-20T04:30:14;0.40;;;0.40;;
17925;SDS011;9088;55.674;13.354;2023-08-20T04:32:42;0.57;;;0.57;;
17925;SDS011;9088;55.674;13.354;2023-08-20T04:35:09;0.50;;;0.50;;
17925;SDS011;9088;55.674;13.354;2023-08-20T04:37:37;0.50;;;0.50;;
17925;SDS011;9088;55.674;13.354;2023-08-20T04:40:07;0.50;;;0.50;;
17925;SDS011;9088;55.674;13.354;2023-08-20T04:42:35;0.50;;;0.50;;
17925;SDS011;9088;55.674;13.354;2023-08-20T04:45:03;0.60;;;0.60;;
17925;SDS011;9088;55.674;13.354;2023-08-20T04:47:32;0.60;;;0.60;;
17925;SDS011;9088;55.674;13.354;2023-08-20T04:49:59;0.60;;;0.60;;
17925;SDS011;9088;55.674;13.354;2023-08-20T04:52:27;0.60;;;0.60;;
17925;SDS011;9088;55.674;13.354;2023-08-20T04:54:54;0.50;;;0.50;;
17925;SDS011;9088;55.674;13.354;2023-08-20T04:57:23;0.60;;;0.60;;
17925;SDS011;9088;55.674;13.354;2023-08-20T04:59:51;0.50;;;0.50;;
17925;SDS011;9088;55.674;13.354;2023-08-20T05:02:18;0.50;;;0.50;;
17925;SDS011;9088;55.674;13.354;2023-08-20T05:04:46;0.50;;;0.50;;
17925;SDS011;9088;55.674;13.354;2023-08-20T05:07:13;0.50;;;0.50;;
17925;SDS011;9088;55.674;13.354;2023-08-20T05:09:41;0.50;;;0.50;;
17925;SDS011;9088;55.674;13.354;2023-08-20T05:12:09;0.50;;;0.50;;
17925;SDS011;9088;55.674;13.354;2023-08-20T05:14:38;0.50;;;0.50;;
17925;SDS011;9088;55.674;13.354;2023-08-20T05:17:06;0.50;;;0.50;;
17925;SDS011;9088;55.674;13.354;2023-08-20T05:19:33;0.50;;;0.50;;
17925;SDS011;9088;55.674;13.354;2023-08-20T05:22:01;0.60;;;0.60;;
17925;SDS011;9088;55.674;13.354;2023-08-20T05:24:28;0.57;;;0.57;;
17925;SDS011;9088;55.674;13.354;2023-08-20T05:27:06;0.50;;;0.50;;
17925;SDS011;9088;55.674;13.354;2023-08-20T05:29:33;0.50;;;0.50;;
17925;SDS011;9088;55.674;13.354;2023-08-20T05:32:02;0.50;;;0.50;;
17925;SDS011;9088;55.674;13.354;2023-08-20T05:34:36;0.57;;;0.57;;
17925;SDS011;9088;55.674;13.354;2023-08-20T05:37:03;0.50;;;0.50;;
17925;SDS011;9088;55.674;13.354;2023-08-20T05:39:36;0.60;;;0.60;;
17925;SDS011;9088;55.674;13.354;2023-08-20T05:42:04;0.60;;;0.60;;
17925;SDS011;9088;55.674;13.354;2023-08-20T05:44:31;0.60;;;0.60;;
17925;SDS011;9088;55.674;13.354;2023-08-20T05:46:59;0.60;;;0.60;;
17925;SDS011;9088;55.674;13.354;2023-08-20T05:49:28;0.60;;;0.60;;
17925;SDS011;9088;55.674;13.354;2023-08-20T05:51:55;0.70;;;0.70;;
17925;SDS011;9088;55.674;13.354;2023-08-20T05:54:23;0.70;;;0.70;;
17925;SDS011;9088;55.674;13.354;2023-08-20T05:56:50;0.60;;;0.60;;
17925;SDS011;9088;55.674;13.354;2023-08-20T05:59:17;0.70;;;0.70;;
17925;SDS011;9088;55.674;13.354;2023-08-20T06:01:45;0.70;;;0.70;;
17925;SDS011;9088;55.674;13.354;2023-08-20T06:04:13;0.60;;;0.60;;
17925;SDS011;9088;55.674;13.354;2023-08-20T06:06:42;0.70;;;0.70;;
17925;SDS011;9088;55.674;13.354;2023-08-20T06:09:09;0.60;;;0.60;;
17925;SDS011;9088;55.674;13.354;2023-08-20T06:11:37;0.60;;;0.60;;
17925;SDS011;9088;55.674;13.354;2023-08-20T06:14:04;0.50;;;0.50;;
17925;SDS011;9088;55.674;13.354;2023-08-20T06:16:32;0.50;;;0.50;;
17925;SDS011;9088;55.674;13.354;2023-08-20T06:18:59;0.60;;;0.60;;
17925;SDS011;9088;55.674;13.354;2023-08-20T06:21:27;0.60;;;0.60;;
17925;SDS011;9088;55.674;13.354;2023-08-20T06:23:56;0.50;;;0.50;;
17925;SDS011;9088;55.674;13.354;2023-08-20T06:26:23;0.50;;;0.50;;
17925;SDS011;9088;55.674;13.354;2023-08-20T06:28:51;0.50;;;0.50;;
17925;SDS011;9088;55.674;13.354;2023-08-20T06:31:18;0.60;;;0.60;;
17925;SDS011;9088;55.674;13.354;2023-08-20T06:33:46;0.50;;;0.50;;
17925;SDS011;9088;55.674;13.354;2023-08-20T06:36:14;0.50;;;0.50;;
17925;SDS011;9088;55.674;13.354;2023-08-20T06:38:41;0.50;;;0.50;;
17925;SDS011;9088;55.674;13.354;2023-08-20T06:41:10;0.40;;;0.40;;
17925;SDS011;9088;55.674;13.354;2023-08-20T06:43:38;0.50;;;0.50;;
17925;SDS011;9088;55.674;13.354;2023-08-20T06:46:05;0.50;;;0.50;;
17925;SDS011;9088;55.674;13.354;2023-08-20T06:48:33;0.60;;;0.60;;
17925;SDS011;9088;55.674;13.354;2023-08-20T06:51:07;0.60;;;0.60;;
17925;SDS011;9088;55.674;13.354;2023-08-20T06:53:35;0.60;;;0.60;;
17925;SDS011;9088;55.674;13.354;2023-08-20T06:56:02;0.50;;;0.50;;
17925;SDS011;9088;55.674;13.354;2023-08-20T06:58:31;0.60;;;0.60;;
17925;SDS011;9088;55.674;13.354;2023-08-20T07:00:58;0.60;;;0.60;;
17925;SDS011;9088;55.674;13.354;2023-08-20T07:03:32;0.50;;;0.50;;
17925;SDS011;9088;55.674;13.354;2023-08-20T07:06:00;0.60;;;0.60;;
17925;SDS011;9088;55.674;13.354;2023-08-20T07:08:27;0.50;;;0.50;;
17925;SDS011;9088;55.674;13.354;2023-08-20T07:10:55;0.50;;;0.50;;
17925;SDS011;9088;55.674;13.354;2023-08-20T07:13:22;0.50;;;0.50;;
17925;SDS011;9088;55.674;13.354;2023-08-20T07:15:52;0.50;;;0.50;;
17925;SDS011;9088;55.674;13.354;2023-08-20T07:18:19;0.43;;;0.43;;
17925;SDS011;9088;55.674;13.354;2023-08-20T07:20:47;0.50;;;0.50;;
17925;SDS011;9088;55.674;13.354;2023-08-20T07:23:14;0.60;;;0.60;;
17925;SDS011;9088;55.674;13.354;2023-08-20T07:25:42;0.50;;;0.50;;
17925;SDS011;9088;55.674;13.354;2023-08-20T07:28:12;0.60;;;0.60;;
17925;SDS011;9088;55.674;13.354;2023-08-20T07:30:40;0.50;;;0.50;;
17925;SDS011;9088;55.674;13.354;2023-08-20T07:33:10;0.50;;;0.50;;
17925;SDS011;9088;55.674;13.354;2023-08-20T07:35:38;0.47;;;0.47;;
17925;SDS011;9088;55.674;13.354;2023-08-20T07:38:05;0.50;;;0.50;;
17925;SDS011;9088;55.674;13.354;2023-08-20T07:40:33;0.50;;;0.50;;
17925;SDS011;9088;55.674;13.354;2023-08-20T07:43:00;0.40;;;0.40;;
17925;SDS011;9088;55.674;13.354;2023-08-20T07:45:28;0.40;;;0.40;;
17925;SDS011;9088;55.674;13.354;2023-08-20T07:47:56;0.40;;;0.40;;
17925;SDS011;9088;55.674;13.354;2023-08-20T07:50:24;0.40;;;0.40;;
17925;SDS011;9088;55.674;13.354;2023-08-20T07:52:52;0.50;;;0.50;;
17925;SDS011;9088;55.674;13.354;2023-08-20T07:55:20;0.40;;;0.40;;
17925;SDS011;9088;55.674;13.354;2023-08-20T07:57:47;0.50;;;0.50;;
17925;SDS011;9088;55.674;13.354;2023-08-20T08:00:16;0.50;;;0.50;;
17925;SDS011;9088;55.674;13.354;2023-08-20T08:02:44;0.50;;;0.50;;
17925;SDS011;9088;55.674;13.354;2023-08-20T08:05:12;0.40;;;0.40;;
17925;SDS011;9088;55.674;13.354;2023-08-20T08:07:41;0.40;;;0.40;;
17925;SDS011;9088;55.674;13.354;2023-08-20T08:10:09;0.40;;;0.40;;
17925;SDS011;9088;55.674;13.354;2023-08-20T08:12:36;0.40;;;0.40;;
17925;SDS011;9088;55.674;13.354;2023-08-20T08:15:04;0.60;;;0.60;;
17925;SDS011;9088;55.674;13.354;2023-08-20T08:17:32;0.50;;;0.50;;
17925;SDS011;9088;55.674;13.354;2023-08-20T08:19:59;0.60;;;0.60;;
17925;SDS011;9088;55.674;13.354;2023-08-20T08:22:28;0.50;;;0.50;;
17925;SDS011;9088;55.674;13.354;2023-08-20T08:24:57;0.50;;;0.50;;
17925;SDS011;9088;55.674;13.354;2023-08-20T08:27:24;0.50;;;0.50;;
17925;SDS011;9088;55.674;13.354;2023-08-20T08:29:52;0.50;;;0.50;;
17925;SDS011;9088;55.674;13.354;2023-08-20T08:32:19;0.43;;;0.43;;
17925;SDS011;9088;55.674;13.354;2023-08-20T08:34:47;0.50;;;0.50;;
17925;SDS011;9088;55.674;13.354;2023-08-20T08:37:14;0.50;;;0.50;;
17925;SDS011;9088;55.674;13.354;2023-08-20T08:39:42;0.40;;;0.40;;
17925;SDS011;9088;55.674;13.354;2023-08-20T08:42:11;0.47;;;0.47;;
17925;SDS011;9088;55.674;13.354;2023-08-20T08:44:38;0.40;;;0.40;;
17925;SDS011;9088;55.674;13.354;2023-08-20T08:47:06;0.40;;;0.40;;
17925;SDS011;9088;55.674;13.354;2023-08-20T08:49:34;0.50;;;0.50;;
17925;SDS011;9088;55.674;13.354;2023-08-20T08:52:02;0.50;;;0.50;;
17925;SDS011;9088;55.674;13.354;2023-08-20T08:54:32;0.50;;;0.50;;
17925;SDS011;9088;55.674;13.354;2023-08-20T08:57:00;0.50;;;0.50;;
17925;SDS011;9088;55.674;13.354;2023-08-20T08:59:29;0.50;;;0.50;;
17925;SDS011;9088;55.674;13.354;2023-08-20T09:01:56;0.50;;;0.50;;
17925;SDS011;9088;55.674;13.354;2023-08-20T09:04:24;0.50;;;0.50;;
17925;SDS011;9088;55.674;13.354;2023-08-20T09:06:52;0.50;;;0.50;;
17925;SDS011;9088;55.674;13.354;2023-08-20T09:09:20;0.50;;;0.50;;
17925;SDS011;9088;55.674;13.354;2023-08-20T09:11:48;0.50;;;0.50;;
17925;SDS011;9088;55.674;13.354;2023-08-20T09:14:22;0.60;;;0.60;;
17925;SDS011;9088;55.674;13.354;2023-08-20T09:16:55;0.57;;;0.57;;
17925;SDS011;9088;55.674;13.354;2023-08-20T09:19:23;0.60;;;0.60;;
17925;SDS011;9088;55.674;13.354;2023-08-20T09:21:51;0.60;;;0.60;;
17925;SDS011;9088;55.674;13.354;2023-08-20T09:24:26;0.60;;;0.60;;
17925;SDS011;9088;55.674;13.354;2023-08-20T09:26:59;0.40;;;0.40;;
17925;SDS011;9088;55.674;13.354;2023-08-20T09:29:27;0.40;;;0.40;;
17925;SDS011;9088;55.674;13.354;2023-08-20T09:32:01;0.50;;;0.50;;
17925;SDS011;9088;55.674;13.354;2023-08-20T09:34:35;0.50;;;0.50;;
17925;SDS011;9088;55.674;13.354;2023-08-20T09:37:07;0.40;;;0.40;;
17925;SDS011;9088;55.674;13.354;2023-08-20T09:39:35;0.40;;;0.40;;
17925;SDS011;9088;55.674;13.354;2023-08-20T09:42:02;0.40;;;0.40;;
17925;SDS011;9088;55.674;13.354;2023-08-20T09:44:32;0.40;;;0.40;;
17925;SDS011;9088;55.674;13.354;2023-08-20T09:47:03;0.40;;;0.40;;
17925;SDS011;9088;55.674;13.354;2023-08-20T09:49:31;0.40;;;0.40;;
17925;SDS011;9088;55.674;13.354;2023-08-20T09:52:00;0.40;;;0.40;;
17925;SDS011;9088;55.674;13.354;2023-08-20T09:54:33;0.40;;;0.40;;
17925;SDS011;9088;55.674;13.354;2023-08-20T09:57:02;0.40;;;0.40;;
17925;SDS011;9088;55.674;13.354;2023-08-20T09:59:33;0.50;;;0.50;;
17925;SDS011;9088;55.674;13.354;2023-08-20T10:02:03;0.40;;;0.40;;
17925;SDS011;9088;55.674;13.354;2023-08-20T10:04:31;0.40;;;0.40;;
17925;SDS011;9088;55.674;13.354;2023-08-20T10:07:01;0.50;;;0.50;;
17925;SDS011;9088;55.674;13.354;2023-08-20T10:09:32;0.40;;;0.40;;
17925;SDS011;9088;55.674;13.354;2023-08-20T10:12:01;0.40;;;0.40;;
17925;SDS011;9088;55.674;13.354;2023-08-20T10:14:30;0.50;;;0.50;;
17925;SDS011;9088;55.674;13.354;2023-08-20T10:16:58;0.40;;;0.40;;
17925;SDS011;9088;55.674;13.354;2023-08-20T10:19:29;0.40;;;0.40;;
17925;SDS011;9088;55.674;13.354;2023-08-20T10:21:58;0.40;;;0.40;;
17925;SDS011;9088;55.674;13.354;2023-08-20T10:24:25;0.40;;;0.40;;
17925;SDS011;9088;55.674;13.354;2023-08-20T10:27:06;0.40;;;0.40;;
17925;SDS011;9088;55.674;13.354;2023-08-20T10:29:35;0.40;;;0.40;;
17925;SDS011;9088;55.674;13.354;2023-08-20T10:32:03;0.30;;;0.30;;
17925;SDS011;9088;55.674;13.354;2023-08-20T10:34:33;0.30;;;0.30;;
17925;SDS011;9088;55.674;13.354;2023-08-20T10:37:02;0.30;;;0.30;;
17925;SDS011;9088;55.674;13.354;2023-08-20T10:39:29;0.30;;;0.30;;
17925;SDS011;9088;55.674;13.354;2023-08-20T10:42:21;0.30;;;0.30;;
17925;SDS011;9088;55.674;13.354;2023-08-20T10:45:00;0.30;;;0.30;;
17925;SDS011;9088;55.674;13.354;2023-08-20T10:47:36;0.30;;;0.30;;
17925;SDS011;9088;55.674;13.354;2023-08-20T10:50:05;0.30;;;0.30;;
17925;SDS011;9088;55.674;13.354;2023-08-20T10:52:38;0.30;;;0.30;;
17925;SDS011;9088;55.674;13.354;2023-08-20T10:55:06;0.20;;;0.20;;
17925;SDS011;9088;55.674;13.354;2023-08-20T10:57:34;0.30;;;0.30;;
17925;SDS011;9088;55.674;13.354;2023-08-20T11:00:03;0.30;;;0.30;;
17925;SDS011;9088;55.674;13.354;2023-08-20T11:02:36;0.30;;;0.30;;
17925;SDS011;9088;55.674;13.354;2023-08-20T11:05:09;0.30;;;0.30;;
17925;SDS011;9088;55.674;13.354;2023-08-20T11:07:43;0.30;;;0.30;;
17925;SDS011;9088;55.674;13.354;2023-08-20T11:10:13;0.30;;;0.30;;
17925;SDS011;9088;55.674;13.354;2023-08-20T11:12:41;0.30;;;0.30;;
17925;SDS011;9088;55.674;13.354;2023-08-20T11:15:09;0.30;;;0.30;;
17925;SDS011;9088;55.674;13.354;2023-08-20T11:17:41;0.30;;;0.30;;
17925;SDS011;9088;55.674;13.354;2023-08-20T11:20:10;0.40;;;0.40;;
17925;SDS011;9088;55.674;13.354;2023-08-20T11:22:39;0.40;;;0.40;;
17925;SDS011;9088;55.674;13.354;2023-08-20T11:25:10;0.40;;;0.40;;
17925;SDS011;9088;55.674;13.354;2023-08-20T11:27:40;0.30;;;0.30;;
17925;SDS011;9088;55.674;13.354;2023-08-20T11:30:08;0.30;;;0.30;;
17925;SDS011;9088;55.674;13.354;2023-08-20T11:32:37;0.30;;;0.30;;
17925;SDS011;9088;55.674;13.354;2023-08-20T11:35:05;0.30;;;0.30;;
17925;SDS011;9088;55.674;13.354;2023-08-20T11:37:35;0.40;;;0.40;;
17925;SDS011;9088;55.674;13.354;2023-08-20T11:40:03;0.30;;;0.30;;
17925;SDS011;9088;55.674;13.354;2023-08-20T11:42:34;0.30;;;0.30;;
17925;SDS011;9088;55.674;13.354;2023-08-20T11:45:02;0.30;;;0.30;;
17925;SDS011;9088;55.674;13.354;2023-08-20T11:47:30;0.37;;;0.37;;
17925;SDS011;9088;55.674;13.354;2023-08-20T11:50:06;0.70;;;0.70;;
17925;SDS011;9088;55.674;13.354;2023-08-20T11:52:35;0.60;;;0.60;;
17925;SDS011;9088;55.674;13.354;2023-08-20T11:55:04;0.40;;;0.40;;
17925;SDS011;9088;55.674;13.354;2023-08-20T11:57:33;0.40;;;0.40;;
17925;SDS011;9088;55.674;13.354;2023-08-20T12:00:01;0.50;;;0.50;;
17925;SDS011;9088;55.674;13.354;2023-08-20T12:02:34;0.50;;;0.50;;
17925;SDS011;9088;55.674;13.354;2023-08-20T12:05:02;0.40;;;0.40;;
17925;SDS011;9088;55.674;13.354;2023-08-20T12:07:30;0.40;;;0.40;;
17925;SDS011;9088;55.674;13.354;2023-08-20T12:10:06;1.23;;;1.23;;
17925;SDS011;9088;55.674;13.354;2023-08-20T12:12:47;1.00;;;1.00;;
17925;SDS011;9088;55.674;13.354;2023-08-20T12:15:14;1.10;;;1.10;;
17925;SDS011;9088;55.674;13.354;2023-08-20T12:17:42;1.20;;;1.20;;
17925;SDS011;9088;55.674;13.354;2023-08-20T12:20:10;1.40;;;1.40;;
17925;SDS011;9088;55.674;13.354;2023-08-20T12:22:38;1.20;;;1.20;;
17925;SDS011;9088;55.674;13.354;2023-08-20T12:25:07;1.30;;;1.30;;
17925;SDS011;9088;55.674;13.354;2023-08-20T12:27:35;1.37;;;1.37;;
17925;SDS011;9088;55.674;13.354;2023-08-20T12:30:03;1.30;;;1.30;;
17925;SDS011;9088;55.674;13.354;2023-08-20T12:32:34;1.17;;;1.17;;
17925;SDS011;9088;55.674;13.354;2023-08-20T12:35:01;1.37;;;1.37;;
17925;SDS011;9088;55.674;13.354;2023-08-20T12:37:29;0.70;;;0.70;;
17925;SDS011;9088;55.674;13.354;2023-08-20T12:39:56;0.50;;;0.50;;
17925;SDS011;9088;55.674;13.354;2023-08-20T12:42:25;0.60;;;0.60;;
17925;SDS011;9088;55.674;13.354;2023-08-20T12:44:54;0.60;;;0.60;;
17925;SDS011;9088;55.674;13.354;2023-08-20T12:47:22;0.70;;;0.70;;
17925;SDS011;9088;55.674;13.354;2023-08-20T12:49:50;1.40;;;1.40;;
17925;SDS011;9088;55.674;13.354;2023-08-20T12:52:17;1.30;;;1.30;;
17925;SDS011;9088;55.674;13.354;2023-08-20T12:54:46;0.50;;;0.50;;
17925;SDS011;9088;55.674;13.354;2023-08-20T12:57:14;0.60;;;0.60;;
17925;SDS011;9088;55.674;13.354;2023-08-20T12:59:43;1.20;;;1.20;;
17925;SDS011;9088;55.674;13.354;2023-08-20T13:02:11;1.40;;;1.40;;
17925;SDS011;9088;55.674;13.354;2023-08-20T13:04:38;1.53;;;1.53;;
17925;SDS011;9088;55.674;13.354;2023-08-20T13:07:07;1.50;;;1.50;;
17925;SDS011;9088;55.674;13.354;2023-08-20T13:09:36;0.60;;;0.60;;
17925;SDS011;9088;55.674;13.354;2023-08-20T13:12:03;0.77;;;0.77;;
17925;SDS011;9088;55.674;13.354;2023-08-20T13:14:34;1.40;;;1.40;;
17925;SDS011;9088;55.674;13.354;2023-08-20T13:17:04;0.90;;;0.90;;
17925;SDS011;9088;55.674;13.354;2023-08-20T13:19:31;0.50;;;0.50;;
17925;SDS011;9088;55.674;13.354;2023-08-20T13:21:59;0.50;;;0.50;;
17925;SDS011;9088;55.674;13.354;2023-08-20T13:24:26;0.60;;;0.60;;
17925;SDS011;9088;55.674;13.354;2023-08-20T13:26:54;0.60;;;0.60;;
17925;SDS011;9088;55.674;13.354;2023-08-20T13:29:21;0.50;;;0.50;;
17925;SDS011;9088;55.674;13.354;2023-08-20T13:31:49;0.50;;;0.50;;
17925;SDS011;9088;55.674;13.354;2023-08-20T13:34:18;0.60;;;0.60;;
17925;SDS011;9088;55.674;13.354;2023-08-20T13:36:46;0.60;;;0.60;;
17925;SDS011;9088;55.674;13.354;2023-08-20T13:39:13;1.30;;;1.30;;
17925;SDS011;9088;55.674;13.354;2023-08-20T13:41:43;1.30;;;1.30;;
17925;SDS011;9088;55.674;13.354;2023-08-20T13:44:11;1.20;;;1.20;;
17925;SDS011;9088;55.674;13.354;2023-08-20T13:46:38;0.70;;;0.70;;
17925;SDS011;9088;55.674;13.354;2023-08-20T13:49:06;1.20;;;1.20;;
17925;SDS011;9088;55.674;13.354;2023-08-20T13:51:36;1.37;;;1.37;;
17925;SDS011;9088;55.674;13.354;2023-08-20T13:54:03;1.70;;;1.70;;
17925;SDS011;9088;55.674;13.354;2023-08-20T13:56:31;1.60;;;1.60;;
17925;SDS011;9088;55.674;13.354;2023-08-20T13:58:59;1.80;;;1.80;;
17925;SDS011;9088;55.674;13.354;2023-08-20T14:01:26;1.60;;;1.60;;
17925;SDS011;9088;55.674;13.354;2023-08-20T14:03:54;1.70;;;1.70;;
17925;SDS011;9088;55.674;13.354;2023-08-20T14:06:22;1.43;;;1.43;;
17925;SDS011;9088;55.674;13.354;2023-08-20T14:08:51;1.47;;;1.47;;
17925;SDS011;9088;55.674;13.354;2023-08-20T14:11:18;1.60;;;1.60;;
17925;SDS011;9088;55.674;13.354;2023-08-20T14:13:46;1.50;;;1.50;;
17925;SDS011;9088;55.674;13.354;2023-08-20T14:16:14;1.77;;;1.77;;
17925;SDS011;9088;55.674;13.354;2023-08-20T14:18:43;1.53;;;1.53;;
17925;SDS011;9088;55.674;13.354;2023-08-20T14:21:12;2.17;;;2.07;;
17925;SDS011;9088;55.674;13.354;2023-08-20T14:23:42;1.83;;;1.83;;
17925;SDS011;9088;55.674;13.354;2023-08-20T14:26:14;1.70;;;1.70;;
17925;SDS011;9088;55.674;13.354;2023-08-20T14:28:42;1.60;;;1.60;;
17925;SDS011;9088;55.674;13.354;2023-08-20T14:31:12;1.37;;;1.37;;
17925;SDS011;9088;55.674;13.354;2023-08-20T14:33:39;1.20;;;1.20;;
17925;SDS011;9088;55.674;13.354;2023-08-20T14:36:07;1.80;;;1.80;;
17925;SDS011;9088;55.674;13.354;2023-08-20T14:38:35;0.70;;;0.70;;
17925;SDS011;9088;55.674;13.354;2023-08-20T14:41:03;0.60;;;0.60;;
17925;SDS011;9088;55.674;13.354;2023-08-20T14:43:32;0.50;;;0.50;;
17925;SDS011;9088;55.674;13.354;2023-08-20T14:46:00;1.40;;;1.40;;
17925;SDS011;9088;55.674;13.354;2023-08-20T14:48:27;1.33;;;1.33;;
17925;SDS011;9088;55.674;13.354;2023-08-20T14:50:55;1.00;;;1.00;;
17925;SDS011;9088;55.674;13.354;2023-08-20T14:53:22;0.53;;;0.53;;
17925;SDS011;9088;55.674;13.354;2023-08-20T14:55:50;0.50;;;0.50;;